createdAt,value
2018-12-29T00:00:58.194Z,102451.13
2018-12-29T00:04:03.306Z,102441.98
2018-12-29T00:07:08.467Z,102442.19
2018-12-29T00:10:13.558Z,102438.12
2018-12-29T00:13:18.704Z,102442.68
2018-12-29T00:16:23.824Z,102441.00
2018-12-29T00:19:28.949Z,102436.28
2018-12-29T00:22:34.060Z,102436.61
2018-12-29T00:25:39.299Z,102437.33
2018-12-29T00:28:44.420Z,102447.98
2018-12-29T00:31:49.636Z,102440.73
2018-12-29T00:34:54.738Z,102441.72
2018-12-29T00:37:59.856Z,102442.24
2018-12-29T00:41:04.990Z,102442.27
2018-12-29T00:44:10.143Z,102438.87
2018-12-29T00:47:15.278Z,102440.43
2018-12-29T00:50:20.434Z,102443.13
2018-12-29T00:53:25.560Z,102443.66
2018-12-29T00:56:30.687Z,102443.32
2018-12-29T00:59:35.798Z,102438.06
2018-12-29T01:02:41.021Z,102440.27
2018-12-29T01:05:46.112Z,102439.58
2018-12-29T01:08:51.271Z,102438.56
2018-12-29T01:11:56.373Z,102440.61
2018-12-29T01:15:01.502Z,102447.05
2018-12-29T01:18:06.731Z,102455.66
2018-12-29T01:21:11.864Z,102452.79
2018-12-29T01:24:17.057Z,102462.62
2018-12-29T01:27:22.205Z,102452.12
2018-12-29T01:30:27.323Z,102460.08
2018-12-29T01:33:32.462Z,102458.23
2018-12-29T01:36:37.668Z,102463.28
2018-12-29T01:39:42.856Z,102459.56
2018-12-29T01:42:47.955Z,102447.88
2018-12-29T01:45:53.073Z,102444.48
2018-12-29T01:48:58.212Z,102443.48
2018-12-29T01:52:03.332Z,102440.61
2018-12-29T01:55:08.520Z,102439.94
2018-12-29T01:58:13.660Z,102436.92
2018-12-29T02:01:18.779Z,102435.92
2018-12-29T02:04:23.881Z,102440.16
2018-12-29T02:07:29.009Z,102437.44
2018-12-29T02:10:34.222Z,102442.20
2018-12-29T02:13:39.403Z,102439.97
2018-12-29T02:16:44.570Z,102445.56
2018-12-29T02:19:49.670Z,102446.92
2018-12-29T02:22:54.793Z,102441.67
2018-12-29T02:25:59.973Z,102444.53
2018-12-29T02:29:05.128Z,102440.14
2018-12-29T02:32:10.221Z,102438.79
2018-12-29T02:35:15.413Z,102436.77
2018-12-29T02:38:20.518Z,102435.41
2018-12-29T02:41:25.737Z,102424.91
2018-12-29T02:44:30.877Z,102429.45
2018-12-29T02:47:36.042Z,102430.64
2018-12-29T02:50:41.146Z,102428.79
2018-12-29T02:53:46.279Z,102427.93
2018-12-29T02:56:51.435Z,102431.66
2018-12-29T02:59:56.560Z,102426.92
2018-12-29T03:03:01.689Z,102430.31
2018-12-29T03:06:06.892Z,102425.73
2018-12-29T03:09:12.008Z,102428.29
2018-12-29T03:12:17.106Z,102432.84
2018-12-29T03:15:22.227Z,102419.28
2018-12-29T03:18:27.337Z,102415.39
2018-12-29T03:21:32.494Z,102405.58
2018-12-29T03:24:37.635Z,102404.23
2018-12-29T03:27:42.785Z,102405.43
2018-12-29T03:30:47.939Z,102404.05
2018-12-29T03:33:53.058Z,102414.38
2018-12-29T03:36:58.219Z,102412.55
2018-12-29T03:40:03.319Z,102412.87
2018-12-29T03:43:08.458Z,102408.14
2018-12-29T03:46:13.570Z,102396.59
2018-12-29T03:49:18.740Z,102398.30
2018-12-29T03:52:23.866Z,102400.36
2018-12-29T03:55:29.088Z,102393.91
2018-12-29T03:58:34.184Z,102402.53
2018-12-29T04:01:39.332Z,102398.48
2018-12-29T04:04:44.453Z,102392.70
2018-12-29T04:07:49.588Z,102386.78
2018-12-29T04:10:54.695Z,102390.35
2018-12-29T04:13:59.821Z,102384.42
2018-12-29T04:17:04.942Z,102383.75
2018-12-29T04:20:10.224Z,102386.95
2018-12-29T04:23:15.351Z,102385.45
2018-12-29T04:26:20.486Z,102390.34
2018-12-29T04:29:25.600Z,102385.63
2018-12-29T04:32:30.855Z,102389.01
2018-12-29T04:35:36.001Z,102390.02
2018-12-29T04:38:41.145Z,102384.92
2018-12-29T04:41:46.260Z,102391.05
2018-12-29T04:44:51.384Z,102404.23
2018-12-29T04:47:56.516Z,102408.97
2018-12-29T04:51:01.668Z,102407.78
2018-12-29T04:54:06.770Z,102411.37
2018-12-29T04:57:11.934Z,102415.76
2018-12-29T05:00:17.159Z,102412.87
2018-12-29T05:03:22.249Z,102409.16
2018-12-29T05:06:27.531Z,102398.98
2018-12-29T05:09:32.631Z,102392.41
2018-12-29T05:12:37.813Z,102377.68
2018-12-29T05:15:42.934Z,102369.55
2018-12-29T05:18:48.066Z,102373.10
2018-12-29T05:21:53.174Z,102373.28
2018-12-29T05:24:58.331Z,102372.44
2018-12-29T05:28:03.445Z,102376.50
2018-12-29T05:31:08.570Z,102375.13
2018-12-29T05:34:13.706Z,102382.74
2018-12-29T05:37:18.831Z,102378.19
2018-12-29T05:40:23.941Z,102384.44
2018-12-29T05:43:29.098Z,102392.75
2018-12-29T05:46:34.230Z,102395.80
2018-12-29T05:49:39.383Z,102388.34
2018-12-29T05:52:44.497Z,102378.70
2018-12-29T05:55:49.645Z,102367.52
2018-12-29T05:58:54.783Z,102367.35
2018-12-29T06:01:59.901Z,102380.89
2018-12-29T06:05:05.232Z,102394.80
2018-12-29T06:08:10.360Z,102393.94
2018-12-29T06:11:15.481Z,102375.49
2018-12-29T06:14:20.623Z,102387.83
2018-12-29T06:17:25.740Z,102376.66
2018-12-29T06:20:30.881Z,102378.84
2018-12-29T06:23:36.011Z,102377.00
2018-12-29T06:26:41.121Z,102384.77
2018-12-29T06:29:46.235Z,102392.05
2018-12-29T06:32:51.389Z,102395.09
2018-12-29T06:35:56.576Z,102392.03
2018-12-29T06:39:01.699Z,102383.75
2018-12-29T06:42:06.885Z,102385.43
2018-12-29T06:45:12.025Z,102394.41
2018-12-29T06:48:17.164Z,102377.48
2018-12-29T06:51:22.301Z,102370.03
2018-12-29T06:54:27.409Z,102372.58
2018-12-29T06:57:32.534Z,102370.20
2018-12-29T07:00:37.632Z,102353.63
2018-12-29T07:03:42.785Z,102365.48
2018-12-29T07:06:47.896Z,102361.25
2018-12-29T07:09:53.002Z,102367.84
2018-12-29T07:12:58.124Z,102359.72
2018-12-29T07:16:03.269Z,102352.95
2018-12-29T07:19:08.365Z,102342.28
2018-12-29T07:22:13.563Z,102342.30
2018-12-29T07:25:18.743Z,102341.80
2018-12-29T07:28:23.866Z,102341.61
2018-12-29T07:31:28.975Z,102341.10
2018-12-29T07:34:34.107Z,102343.65
2018-12-29T07:37:39.223Z,102337.56
2018-12-29T07:40:44.350Z,102334.34
2018-12-29T07:43:49.477Z,102338.58
2018-12-29T07:46:54.581Z,102339.23
2018-12-29T07:49:59.670Z,102335.02
2018-12-29T07:53:04.790Z,102332.83
2018-12-29T07:56:09.896Z,102335.52
2018-12-29T07:59:15.031Z,102339.73
2018-12-29T08:02:20.161Z,102349.55
2018-12-29T08:05:25.376Z,102352.91
2018-12-29T08:08:30.548Z,102347.20
2018-12-29T08:11:35.722Z,102346.31
2018-12-29T08:14:40.842Z,102347.69
2018-12-29T08:17:45.949Z,102346.31
2018-12-29T08:20:51.073Z,102354.95
2018-12-29T08:23:56.150Z,102343.63
2018-12-29T08:27:01.281Z,102337.87
2018-12-29T08:30:07.202Z,102327.05
2018-12-29T08:33:12.320Z,102326.36
2018-12-29T08:36:17.430Z,102324.69
2018-12-29T08:39:22.548Z,102320.80
2018-12-29T08:42:27.641Z,102307.45
2018-12-29T08:45:32.752Z,102302.38
2018-12-29T08:48:37.842Z,102298.66
2018-12-29T08:51:43.000Z,102294.59
2018-12-29T08:54:48.084Z,102286.64
2018-12-29T08:57:53.277Z,102283.27
2018-12-29T09:00:58.358Z,102274.81
2018-12-29T09:04:03.503Z,102281.05
2018-12-29T09:07:08.635Z,102269.22
2018-12-29T09:10:13.871Z,102268.88
2018-12-29T09:13:18.973Z,102270.22
2018-12-29T09:16:24.093Z,102257.53
2018-12-29T09:19:29.175Z,102250.61
2018-12-29T09:22:34.310Z,102254.67
2018-12-29T09:25:39.405Z,102247.91
2018-12-29T09:28:44.546Z,102247.91
2018-12-29T09:31:49.647Z,102243.48
2018-12-29T09:34:55.064Z,102242.50
2018-12-29T09:38:00.183Z,102228.25
2018-12-29T09:41:05.399Z,102232.34
2018-12-29T09:44:10.494Z,102229.98
2018-12-29T09:47:19.615Z,102233.36
2018-12-29T09:50:22.469Z,102224.55
2018-12-29T09:53:27.621Z,102217.27
2018-12-29T09:56:32.715Z,102206.29
2018-12-29T09:59:37.841Z,102209.14
2018-12-29T10:02:42.925Z,102209.31
2018-12-29T10:05:48.118Z,102194.27
2018-12-29T10:08:53.218Z,102172.27
2018-12-29T10:11:58.353Z,102167.36
2018-12-29T10:15:03.478Z,102157.53
2018-12-29T10:18:08.591Z,102161.77
2018-12-29T10:21:13.777Z,102157.88
2018-12-29T10:24:18.916Z,102153.13
2018-12-29T10:27:23.994Z,102149.88
2018-12-29T10:30:29.102Z,102131.48
2018-12-29T10:33:34.219Z,102128.10
2018-12-29T10:36:39.387Z,102121.34
2018-12-29T10:39:44.458Z,102113.86
2018-12-29T10:42:49.572Z,102113.89
2018-12-29T10:45:54.704Z,102098.83
2018-12-29T10:48:59.795Z,102092.73
2018-12-29T10:52:04.967Z,102096.15
2018-12-29T10:55:10.367Z,102092.12
2018-12-29T10:58:15.485Z,102082.11
2018-12-29T11:01:20.610Z,102085.67
2018-12-29T11:04:25.741Z,102099.88
2018-12-29T11:07:30.941Z,102100.38
2018-12-29T11:10:36.094Z,102099.86
2018-12-29T11:13:41.192Z,102092.27
2018-12-29T11:16:48.713Z,102090.77
2018-12-29T11:19:53.808Z,102089.88
2018-12-29T11:22:58.925Z,102086.53
2018-12-29T11:26:04.027Z,102082.44
2018-12-29T11:29:09.155Z,102070.64
2018-12-29T11:32:14.352Z,102076.20
2018-12-29T11:35:19.480Z,102046.75
2018-12-29T11:38:24.598Z,102042.23
2018-12-29T11:41:29.706Z,102037.17
2018-12-29T11:44:34.928Z,102027.55
2018-12-29T11:47:40.063Z,102022.11
2018-12-29T11:50:45.257Z,102004.84
2018-12-29T11:53:50.368Z,102006.52
2018-12-29T11:56:55.586Z,101998.03
2018-12-29T12:00:00.718Z,101985.04
2018-12-29T12:03:06.331Z,101972.68
2018-12-29T12:06:11.470Z,101951.53
2018-12-29T12:09:16.654Z,101950.53
2018-12-29T12:12:21.841Z,101955.45
2018-12-29T12:15:27.369Z,101943.08
2018-12-29T12:18:32.493Z,101924.45
2018-12-29T12:21:37.683Z,101930.19
2018-12-29T12:24:42.817Z,101930.69
2018-12-29T12:27:47.923Z,101918.33
2018-12-29T12:30:53.145Z,101914.62
2018-12-29T12:33:58.466Z,101898.34
2018-12-29T12:37:04.153Z,101900.37
2018-12-29T12:40:09.358Z,101885.48
2018-12-29T12:43:14.478Z,101887.50
2018-12-29T12:46:20.081Z,101889.17
2018-12-29T12:49:25.755Z,101870.35
2018-12-29T12:52:30.871Z,101868.19
2018-12-29T12:55:36.039Z,101853.28
2018-12-29T12:58:41.507Z,101860.33
2018-12-29T13:01:47.030Z,101847.16
2018-12-29T13:04:52.119Z,101834.63
2018-12-29T13:07:57.344Z,101826.69
2018-12-29T13:11:02.453Z,101809.92
2018-12-29T13:14:07.583Z,101790.97
2018-12-29T13:17:12.695Z,101777.44
2018-12-29T13:20:17.807Z,101773.42
2018-12-29T13:23:22.950Z,101772.28
2018-12-29T13:26:28.059Z,101767.16
2018-12-29T13:29:33.171Z,101755.16
2018-12-29T13:32:38.280Z,101732.23
2018-12-29T13:35:43.756Z,101721.91
2018-12-29T13:38:48.893Z,101711.62
2018-12-29T13:41:54.044Z,101686.41
2018-12-29T13:44:59.198Z,101691.95
2018-12-29T13:48:06.129Z,101689.77
2018-12-29T13:51:11.255Z,101666.70
2018-12-29T13:54:16.486Z,101659.09
2018-12-29T13:57:21.631Z,101662.46
2018-12-29T14:00:27.078Z,101654.22
2018-12-29T14:03:32.246Z,101638.89
2018-12-29T14:06:38.249Z,101645.28
2018-12-29T14:09:43.436Z,101631.65
2018-12-29T14:12:48.767Z,101625.73
2018-12-29T14:15:53.859Z,101623.08
2018-12-29T14:18:59.421Z,101620.09
2018-12-29T14:22:04.541Z,101610.30
2018-12-29T14:25:09.947Z,101612.54
2018-12-29T14:28:15.078Z,101610.84
2018-12-29T14:31:20.243Z,101602.22
2018-12-29T14:34:25.339Z,101599.86
2018-12-29T14:37:30.889Z,101582.27
2018-12-29T14:40:36.000Z,101578.14
2018-12-29T14:43:41.126Z,101567.00
2018-12-29T14:46:46.229Z,101569.83
2018-12-29T14:49:51.729Z,101562.69
2018-12-29T14:52:56.854Z,101554.16
2018-12-29T14:56:01.976Z,101550.34
2018-12-29T14:59:07.087Z,101555.11
2018-12-29T15:02:12.703Z,101538.09
2018-12-29T15:05:17.818Z,101531.39
2018-12-29T15:08:22.941Z,101517.16
2018-12-29T15:11:28.110Z,101543.97
2018-12-29T15:14:33.249Z,101507.60
2018-12-29T15:17:38.375Z,101502.30
2018-12-29T15:20:43.862Z,101490.97
2018-12-29T15:23:49.338Z,101489.61
2018-12-29T15:26:54.869Z,101481.03
2018-12-29T15:29:59.959Z,101470.27
2018-12-29T15:33:05.122Z,101473.75
2018-12-29T15:36:16.219Z,101463.17
2018-12-29T15:39:17.149Z,101463.48
2018-12-29T15:42:22.339Z,101452.84
2018-12-29T15:45:27.485Z,101443.91
2018-12-29T15:48:32.657Z,101450.22
2018-12-29T15:51:37.792Z,101429.12
2018-12-29T15:54:42.918Z,101428.53
2018-12-29T15:57:48.080Z,101429.27
2018-12-29T16:00:53.322Z,101420.94
2018-12-29T16:03:58.448Z,101411.27
2018-12-29T16:07:03.682Z,101407.37
2018-12-29T16:10:09.261Z,101410.89
2018-12-29T16:13:14.420Z,101394.02
2018-12-29T16:16:19.549Z,101394.58
2018-12-29T16:19:24.712Z,101381.99
2018-12-29T16:22:29.815Z,101379.48
2018-12-29T16:25:35.146Z,101382.30
2018-12-29T16:28:40.331Z,101384.39
2018-12-29T16:31:45.848Z,101373.97
2018-12-29T16:34:51.356Z,101376.08
2018-12-29T16:37:56.485Z,101377.84
2018-12-29T16:41:01.763Z,101366.18
2018-12-29T16:44:06.897Z,101358.11
2018-12-29T16:47:12.389Z,101350.18
2018-12-29T16:50:18.008Z,101361.22
2018-12-29T16:53:29.089Z,101340.08
2018-12-29T16:56:29.975Z,101334.66
2018-12-29T16:59:35.103Z,101331.66
2018-12-29T17:02:40.303Z,101330.11
2018-12-29T17:05:45.769Z,101327.50
2018-12-29T17:08:50.889Z,101316.36
2018-12-29T17:11:56.077Z,101317.06
2018-12-29T17:15:01.251Z,101320.16
2018-12-29T17:18:06.429Z,101308.78
2018-12-29T17:21:11.610Z,101307.38
2018-12-29T17:24:16.709Z,101301.25
2018-12-29T17:27:21.815Z,101299.59
2018-12-29T17:30:28.456Z,101310.63
2018-12-29T17:33:33.581Z,101290.41
2018-12-29T17:36:42.036Z,101295.13
2018-12-29T17:39:45.577Z,101284.44
2018-12-29T17:42:50.966Z,101281.73
2018-12-29T17:45:56.121Z,101280.48
2018-12-29T17:49:01.257Z,101283.33
2018-12-29T17:52:06.353Z,101282.79
2018-12-29T17:55:11.505Z,101272.69
2018-12-29T17:58:16.604Z,101279.27
2018-12-29T18:01:21.729Z,101275.50
2018-12-29T18:04:26.834Z,101277.57
2018-12-29T18:07:31.973Z,101266.02
2018-12-29T18:10:37.150Z,101254.34
2018-12-29T18:13:42.453Z,101249.36
2018-12-29T18:16:48.083Z,101250.30
2018-12-29T18:19:53.567Z,101253.31
2018-12-29T18:22:58.767Z,101252.71
2018-12-29T18:26:03.934Z,101255.42
2018-12-29T18:29:09.061Z,101243.13
2018-12-29T18:32:14.183Z,101255.22
2018-12-29T18:35:19.366Z,101246.23
2018-12-29T18:38:24.545Z,101245.94
2018-12-29T18:41:29.745Z,101254.70
2018-12-29T18:44:34.845Z,101250.30
2018-12-29T18:47:40.002Z,101236.95
2018-12-29T18:50:45.121Z,101240.52
2018-12-29T18:53:50.267Z,101236.41
2018-12-29T18:56:55.365Z,101238.81
2018-12-29T19:00:00.473Z,101238.17
2018-12-29T19:03:05.584Z,101240.68
2018-12-29T19:06:10.688Z,101241.33
2018-12-29T19:09:16.265Z,101235.70
2018-12-29T19:12:21.372Z,101242.55
2018-12-29T19:15:27.615Z,101239.42
2018-12-29T19:18:33.038Z,101246.95
2018-12-29T19:21:38.149Z,101237.56
2018-12-29T19:24:43.630Z,101235.80
2018-12-29T19:27:48.738Z,101239.97
2018-12-29T19:30:54.266Z,101236.85
2018-12-29T19:33:59.758Z,101235.30
2018-12-29T19:37:04.898Z,101227.77
2018-12-29T19:40:10.468Z,101229.23
2018-12-29T19:43:15.899Z,101231.94
2018-12-29T19:46:21.074Z,101232.25
2018-12-29T19:49:26.204Z,101233.20
2018-12-29T19:52:31.321Z,101224.86
2018-12-29T19:55:36.466Z,101238.41
2018-12-29T19:58:41.568Z,101236.31
2018-12-29T20:01:46.697Z,101239.87
2018-12-29T20:04:52.190Z,101242.78
2018-12-29T20:07:57.678Z,101234.95
2018-12-29T20:11:02.799Z,101239.16
2018-12-29T20:14:07.942Z,101237.80
2018-12-29T20:17:13.054Z,101240.37
2018-12-29T20:20:18.160Z,101243.30
2018-12-29T20:23:23.272Z,101239.02
2018-12-29T20:26:28.416Z,101249.86
2018-12-29T20:29:33.512Z,101243.83
2018-12-29T20:32:38.648Z,101248.61
2018-12-29T20:35:43.779Z,101250.27
2018-12-29T20:38:48.910Z,101251.32
2018-12-29T20:41:55.394Z,101257.83
2018-12-29T20:45:00.687Z,101256.47
2018-12-29T20:48:05.801Z,101251.97
2018-12-29T20:51:10.930Z,101262.70
2018-12-29T20:54:16.083Z,101264.70
2018-12-29T20:57:21.194Z,101264.41
2018-12-29T21:00:26.365Z,101264.20
2018-12-29T21:03:31.855Z,101265.66
2018-12-29T21:06:36.988Z,101268.47
2018-12-29T21:09:42.088Z,101271.72
2018-12-29T21:12:47.198Z,101264.73
2018-12-29T21:15:52.369Z,101267.11
2018-12-29T21:18:57.493Z,101278.29
2018-12-29T21:22:02.616Z,101286.29
2018-12-29T21:25:08.069Z,101292.55
2018-12-29T21:28:13.314Z,101296.42
2018-12-29T21:31:18.429Z,101305.70
2018-12-29T21:34:23.590Z,101299.84
2018-12-29T21:37:28.700Z,101310.48
2018-12-29T21:40:33.816Z,101325.39
2018-12-29T21:43:38.928Z,101322.06
2018-12-29T21:46:44.352Z,101330.74
2018-12-29T21:49:49.532Z,101343.39
2018-12-29T21:52:54.664Z,101344.30
2018-12-29T21:55:59.799Z,101351.89
2018-12-29T21:59:05.078Z,101351.38
2018-12-29T22:02:10.195Z,101351.69
2018-12-29T22:05:15.312Z,101351.89
2018-12-29T22:08:20.712Z,101358.47
2018-12-29T22:11:25.932Z,101359.31
2018-12-29T22:14:31.024Z,101357.55
2018-12-29T22:17:36.125Z,101366.43
2018-12-29T22:20:41.334Z,101366.84
2018-12-29T22:23:46.445Z,101367.58
2018-12-29T22:26:51.572Z,101374.22
2018-12-29T22:29:56.680Z,101373.11
2018-12-29T22:33:01.797Z,101373.22
2018-12-29T22:36:06.903Z,101385.42
2018-12-29T22:39:12.003Z,101390.09
2018-12-29T22:42:17.105Z,101397.36
2018-12-29T22:45:22.242Z,101392.33
2018-12-29T22:48:27.369Z,101403.97
2018-12-29T22:51:32.483Z,101416.63
2018-12-29T22:54:37.610Z,101427.35
2018-12-29T22:57:42.717Z,101438.44
2018-12-29T23:00:49.849Z,101457.23
2018-12-29T23:03:55.120Z,101478.45
2018-12-29T23:07:00.284Z,101487.44
2018-12-29T23:10:05.697Z,101499.86
2018-12-29T23:13:10.800Z,101512.32
2018-12-29T23:16:15.958Z,101519.40
2018-12-29T23:19:21.644Z,101516.68
2018-12-29T23:22:26.787Z,101530.95
2018-12-29T23:25:31.867Z,101542.66
2018-12-29T23:28:37.126Z,101555.73
2018-12-29T23:31:42.696Z,101565.96
2018-12-29T23:34:47.829Z,101575.31
2018-12-29T23:37:52.971Z,101586.86
2018-12-29T23:40:58.054Z,101600.13
2018-12-29T23:44:05.653Z,101625.17
2018-12-29T23:47:10.028Z,101626.59
2018-12-29T23:50:15.235Z,101646.23
2018-12-29T23:53:20.713Z,101629.58
2018-12-29T23:56:26.316Z,101656.16
2018-12-29T23:59:31.421Z,101667.39
